Hlavní strana
METAR-TAF:

METAR-TAF

Letiště :

Hof, Německo

zeměpisná šířka: 50-19N, zeměpisná délka: 011-53E, výška: 567 m

Aktuální stav počasí

Zpráva byla vytvořena před 22 minutami, v 03:50 UTC
Jihojihovýchodní vítr 4 kt, proměnlivý mezi jihovýchodním a jižním
Teplota 16°C
Vlhkost vzduchu 100%
Tlak 1013 hPa
Viditelnost 10 km a více

METAR: EDQM 190350Z AUTO 15004KT 130V190 9999 // FEW098/// SCT120/// 16/16 Q1013

Čas: 06:12 (04:12 UTC)

Předpověď počasí

Zpráva byla vytvořena před 11 hodinami a 12 minutami, v 17:00 UTC
Předpověď platná od 18 v 18 UTC do 19 v 03 UTC
Jihojihozápadní vítr 9 kt
Viditelnost 10 km a více
Žádná oblačnost pod 1500 m, nevyskytují se cumulonimby.
Změna
od 18 v 20 UTC do 18 v 22 UTC
Jižní vítr 4 kt
Pravděpodobnost 30% :
Dočasný
od 18 v 21 UTC do 19 v 03 UTC
Oblačno až skoro zataženo ve výšce 4000 ft, Cumulonimbus.
bouřka, déšť,

TAF: EDQM 181700Z 1818/1903 20009KT CAVOK BECMG 1820/1822 19004KT PROB30 TEMPO 1821/1903 TSRA BKN040CB

Stav a předpovědi počasí z více než 4 000 letišť (zprávy METAR a TAF).

Červené a žluté tečky na mapě představují dostupné meteorologické stanice.

Když kurzor umístíte na tečku, zobrazí se název stanice.

Pak kliknutím zobrazíte stav a předpověď počasí.

Chcete-li změnit mapu, kliknutím na zelené tlačítko se znaménkem +mapu přiblížíte, kliknutím na zelené tlačítko se znaménkem – mapu oddálíte a kliknutím na zelené šipky přejdete na sousední mapy.


METAR-TAF: